KDPA/DPA METAR and TAF weather

Enter ICAO airport designator
Station Type Date Time Source
KDPA METAR 2018/10/16 20:52 UTC NOAA

KDPA 162052Z 24020G29KT 10SM CLR 14/00 A3000 RMK AO2 PK WND 24029/2052 SLP165 T01440000 56025


Station Type Date Time Source
KDPA Decoded METAR 2018/10/16 20:52 UTC NOAA

CHICAGO/WEST CH DUPAGE, IL, United States (KDPA) 41-54N 88-15W 230M
Oct 16, 2018 - 04:52 PM EDT / 2018.10.16 2052 UTC
Wind: from the WSW (240 degrees) at 23 MPH (20 KT) gusting to 33 MPH (29 KT):0
Visibility: 10 mile(s):0
Sky conditions: clear
Temperature: 57.9 F (14.4 C)
Dew Point: 32.0 F (0.0 C)
Relative Humidity: 37%
Pressure (altimeter): 30 in. Hg (1015 hPa)
Pressure tendency: 0.07 inches (2.5 hPa) lower than three hours ago
ob: KDPA 162052Z 24020G29KT 10SM CLR 14/00 A3000 RMK AO2 PK WND 24029/2052 SLP165 T01440000 56025
cycle: 21

Station Type Date Time Source
KDPA TAF 2018/10/16 18:42 UTC NOAA

TAF KDPA 161739Z 1618/1718 23018G30KT P6SM SKC
FM162200 25016G25KT P6SM FEW150
FM170000 27009KT P6SM FEW050
FM170700 30011KT P6SM SCT040
FM171400 31014G22KT P6SM FEW050


Example: see airport list